createdAt,value
2019-01-31T00:01:54.335Z,96425.69
2019-01-31T00:04:55.584Z,96416.70
2019-01-31T00:08:16.589Z,96414.23
2019-01-31T00:11:16.165Z,96407.53
2019-01-31T00:14:42.576Z,96399.91
2019-01-31T00:17:51.755Z,96405.14
2019-01-31T00:21:09.677Z,96401.84
2019-01-31T00:24:14.886Z,96397.97
2019-01-31T00:27:56.215Z,96397.70
2019-01-31T00:31:49.181Z,96401.98
2019-01-31T00:34:55.201Z,96405.58
2019-01-31T00:38:13.961Z,96397.30
2019-01-31T00:41:35.250Z,96399.78
2019-01-31T00:45:20.474Z,96397.83
2019-01-31T00:48:25.190Z,96400.66
2019-01-31T00:51:52.002Z,96398.73
2019-01-31T00:55:07.431Z,96394.89
2019-01-31T00:58:20.359Z,96386.09
2019-01-31T01:01:51.847Z,96388.80
2019-01-31T01:05:11.190Z,96389.14
2019-01-31T01:08:46.202Z,96392.00
2019-01-31T01:12:04.511Z,96386.84
2019-01-31T01:15:26.945Z,96389.41
2019-01-31T01:18:15.761Z,96390.30
2019-01-31T01:21:01.995Z,96388.64
2019-01-31T01:24:10.189Z,96381.88
2019-01-31T01:27:14.287Z,96385.64
2019-01-31T01:30:44.882Z,96381.29
2019-01-31T01:34:07.935Z,96385.89
2019-01-31T01:37:12.713Z,96394.57
2019-01-31T01:40:39.517Z,96388.25
2019-01-31T01:43:34.961Z,96385.86
2019-01-31T01:46:57.577Z,96382.27
2019-01-31T01:50:03.175Z,96381.07
2019-01-31T01:53:25.083Z,96375.13
2019-01-31T01:57:21.306Z,96376.84
2019-01-31T02:00:28.046Z,96376.66
2019-01-31T02:03:56.504Z,96372.70
2019-01-31T02:07:36.961Z,96377.35
2019-01-31T02:10:35.336Z,96370.38
2019-01-31T02:14:00.496Z,96360.61
2019-01-31T02:17:12.665Z,96363.80
2019-01-31T02:20:12.149Z,96356.38
2019-01-31T02:23:44.594Z,96360.13
2019-01-31T02:27:39.125Z,96360.86
2019-01-31T02:31:19.322Z,96359.53
2019-01-31T02:34:24.602Z,96360.88
2019-01-31T02:37:53.609Z,96354.27
2019-01-31T02:41:15.948Z,96350.34
2019-01-31T02:44:42.421Z,96355.45
2019-01-31T02:47:56.493Z,96355.24
2019-01-31T02:50:48.256Z,96346.58
2019-01-31T02:54:21.792Z,96345.34
2019-01-31T02:57:50.644Z,96339.23
2019-01-31T03:01:08.975Z,96333.13
2019-01-31T03:04:30.758Z,96329.94
2019-01-31T03:07:57.736Z,96332.83
2019-01-31T03:10:46.137Z,96326.22
2019-01-31T03:13:31.989Z,96324.20
2019-01-31T03:17:13.409Z,96326.20
2019-01-31T03:20:25.437Z,96330.77
2019-01-31T03:23:48.601Z,96327.02
2019-01-31T03:26:59.852Z,96329.95
2019-01-31T03:30:48.964Z,96331.97
2019-01-31T03:34:22.714Z,96320.61
2019-01-31T03:37:47.751Z,96312.75
2019-01-31T03:40:59.446Z,96309.00
2019-01-31T03:44:02.263Z,96307.80
2019-01-31T03:47:23.127Z,96305.67
2019-01-31T03:50:51.558Z,96301.41
2019-01-31T03:54:40.800Z,96304.86
2019-01-31T03:57:56.738Z,96293.89
2019-01-31T04:01:22.216Z,96290.95
2019-01-31T04:04:05.663Z,96285.45
2019-01-31T04:06:38.778Z,96284.88
2019-01-31T04:09:12.302Z,96283.98
2019-01-31T04:11:44.094Z,96283.22
2019-01-31T04:14:15.929Z,96280.31
2019-01-31T04:16:47.733Z,96279.03
2019-01-31T04:19:19.551Z,96279.71
2019-01-31T04:21:53.660Z,96277.23
2019-01-31T04:24:25.492Z,96272.13
2019-01-31T04:26:57.347Z,96267.38
2019-01-31T04:29:29.151Z,96267.38
2019-01-31T04:32:01.051Z,96265.16
2019-01-31T04:34:32.859Z,96273.56
2019-01-31T04:37:04.694Z,96286.33
2019-01-31T04:39:36.490Z,96285.70
2019-01-31T04:42:08.337Z,96287.06
2019-01-31T04:44:40.160Z,96283.60
2019-01-31T04:47:11.983Z,96284.31
2019-01-31T04:49:43.833Z,96287.88
2019-01-31T04:52:16.194Z,96282.74
2019-01-31T04:54:48.032Z,96278.17
2019-01-31T04:57:19.900Z,96277.33
2019-01-31T04:59:51.748Z,96266.61
2019-01-31T05:02:23.611Z,96272.05
2019-01-31T05:04:55.409Z,96271.97
2019-01-31T05:07:28.293Z,96271.80
2019-01-31T05:10:00.474Z,96280.45
2019-01-31T05:12:32.356Z,96269.62
2019-01-31T05:15:04.470Z,96270.61
2019-01-31T05:17:36.302Z,96273.89
2019-01-31T05:20:12.417Z,96275.66
2019-01-31T05:22:44.271Z,96278.84
2019-01-31T05:25:17.564Z,96266.84
2019-01-31T05:27:49.407Z,96268.95
2019-01-31T05:30:21.240Z,96267.44
2019-01-31T05:32:53.074Z,96264.23
2019-01-31T05:35:24.903Z,96265.04
2019-01-31T05:37:56.736Z,96260.39
2019-01-31T05:40:28.541Z,96263.11
2019-01-31T05:43:00.389Z,96263.41
2019-01-31T05:45:32.253Z,96269.42
2019-01-31T05:48:04.103Z,96264.00
2019-01-31T05:50:35.933Z,96261.02
2019-01-31T05:53:07.885Z,96268.88
2019-01-31T05:55:41.421Z,96270.23
2019-01-31T05:58:13.280Z,96266.78
2019-01-31T06:00:48.357Z,96273.02
2019-01-31T06:03:21.220Z,96265.74
2019-01-31T06:05:53.020Z,96267.10
2019-01-31T06:08:27.423Z,96266.05
2019-01-31T06:11:07.613Z,96268.68
2019-01-31T06:13:34.386Z,96266.13
2019-01-31T06:16:06.897Z,96272.87
2019-01-31T06:18:39.897Z,96271.48
2019-01-31T06:21:14.345Z,96264.92
2019-01-31T06:23:46.210Z,96264.00
2019-01-31T06:26:19.731Z,96263.81
2019-01-31T06:28:53.297Z,96264.92
2019-01-31T06:31:27.440Z,96266.86
2019-01-31T06:34:07.529Z,96261.75
2019-01-31T06:36:46.183Z,96259.11
2019-01-31T06:39:21.955Z,96270.07
2019-01-31T06:41:57.926Z,96272.28
2019-01-31T06:44:30.715Z,96272.12
2019-01-31T06:47:02.562Z,96268.80
2019-01-31T06:49:39.451Z,96274.29
2019-01-31T06:52:12.278Z,96268.63
2019-01-31T06:54:45.405Z,96265.73
2019-01-31T06:57:17.238Z,96267.90
2019-01-31T06:59:49.087Z,96270.76
2019-01-31T07:02:26.674Z,96274.70
2019-01-31T07:04:59.573Z,96301.76
2019-01-31T07:07:34.802Z,96316.02
2019-01-31T07:10:13.980Z,96321.98
2019-01-31T07:12:45.804Z,96320.95
2019-01-31T07:15:17.628Z,96331.05
2019-01-31T07:17:56.887Z,96335.35
2019-01-31T07:20:28.702Z,96344.55
2019-01-31T07:23:00.522Z,96348.50
2019-01-31T07:25:32.347Z,96347.79
2019-01-31T07:28:31.525Z,96348.06
2019-01-31T07:31:03.537Z,96342.34
2019-01-31T07:33:35.418Z,96344.11
2019-01-31T07:36:08.875Z,96345.44
2019-01-31T07:38:46.794Z,96347.83
2019-01-31T07:41:21.868Z,96350.39
2019-01-31T07:43:56.275Z,96350.57
2019-01-31T07:46:31.042Z,96344.17
2019-01-31T07:49:03.858Z,96349.89
2019-01-31T07:51:35.707Z,96358.77
2019-01-31T07:54:07.650Z,96358.14
2019-01-31T07:56:41.246Z,96370.44
2019-01-31T07:59:13.110Z,96357.55
2019-01-31T08:01:45.063Z,96361.05
2019-01-31T08:04:16.903Z,96365.86
2019-01-31T08:06:48.813Z,96370.91
2019-01-31T08:09:20.640Z,96372.39
2019-01-31T08:11:53.053Z,96363.16
2019-01-31T08:14:24.956Z,96363.28
2019-01-31T08:16:56.792Z,96356.87
2019-01-31T08:19:28.630Z,96361.09
2019-01-31T08:22:03.214Z,96365.87
2019-01-31T08:24:37.472Z,96365.42
2019-01-31T08:27:17.983Z,96362.69
2019-01-31T08:29:52.473Z,96360.84
2019-01-31T08:32:27.065Z,96357.20
2019-01-31T08:34:58.849Z,96361.68
2019-01-31T08:37:30.580Z,96364.07
2019-01-31T08:40:03.980Z,96369.95
2019-01-31T08:42:40.508Z,96373.61
2019-01-31T08:45:13.470Z,96375.16
2019-01-31T08:47:45.464Z,96377.98
2019-01-31T08:50:21.749Z,96376.66
2019-01-31T08:52:56.607Z,96380.20
2019-01-31T08:55:28.505Z,96380.28
2019-01-31T08:58:06.263Z,96380.63
2019-01-31T09:00:38.182Z,96386.47
2019-01-31T09:03:10.068Z,96382.60
2019-01-31T09:05:43.622Z,96380.36
2019-01-31T09:08:15.499Z,96379.30
2019-01-31T09:13:30.225Z,96387.96
2019-01-31T09:16:03.409Z,96392.36
2019-01-31T09:18:38.508Z,96391.62
2019-01-31T09:21:57.816Z,96393.98
2019-01-31T09:25:49.146Z,96396.73
2019-01-31T09:29:27.551Z,96399.03
2019-01-31T09:32:52.394Z,96397.71
2019-01-31T09:36:27.680Z,96398.65
2019-01-31T09:39:52.872Z,96401.47
2019-01-31T09:42:42.328Z,96398.41
2019-01-31T09:46:00.971Z,96398.84
2019-01-31T09:49:11.851Z,96398.73
2019-01-31T09:52:10.067Z,96405.59
2019-01-31T09:55:47.480Z,96409.38
2019-01-31T09:58:39.043Z,96407.47
2019-01-31T10:02:13.101Z,96407.97
2019-01-31T10:05:42.428Z,96409.03
2019-01-31T10:08:55.522Z,96406.95
2019-01-31T10:12:01.196Z,96406.67
2019-01-31T10:15:14.397Z,96407.34
2019-01-31T10:18:42.406Z,96409.42
2019-01-31T10:22:23.955Z,96402.51
2019-01-31T10:25:54.939Z,96402.51
2019-01-31T10:29:39.051Z,96397.21
2019-01-31T10:32:55.520Z,96387.19
2019-01-31T10:36:52.159Z,96388.20
2019-01-31T10:39:58.793Z,96381.99
2019-01-31T10:43:18.220Z,96375.63
2019-01-31T10:46:31.539Z,96367.92
2019-01-31T10:49:44.111Z,96360.97
2019-01-31T10:53:14.503Z,96359.39
2019-01-31T10:56:44.411Z,96358.91
2019-01-31T10:59:33.371Z,96353.48
2019-01-31T11:02:57.052Z,96342.45
2019-01-31T11:06:31.929Z,96341.17
2019-01-31T11:09:55.954Z,96344.28
2019-01-31T11:13:32.763Z,96332.47
2019-01-31T11:16:48.148Z,96333.16
2019-01-31T11:20:08.949Z,96324.25
2019-01-31T11:23:49.934Z,96325.01
2019-01-31T11:27:29.474Z,96316.27
2019-01-31T11:30:49.226Z,96315.94
2019-01-31T11:34:32.997Z,96310.56
2019-01-31T11:37:25.177Z,96307.62
2019-01-31T11:40:44.511Z,96311.86
2019-01-31T11:44:00.742Z,96307.83
2019-01-31T11:47:01.336Z,96300.70
2019-01-31T11:50:38.603Z,96301.16
2019-01-31T11:53:51.660Z,96297.64
2019-01-31T11:57:23.988Z,96290.33
2019-01-31T11:59:56.013Z,96282.45
2019-01-31T12:02:29.815Z,96277.24
2019-01-31T12:05:01.657Z,96274.32
2019-01-31T12:07:36.542Z,96278.10
2019-01-31T12:10:07.903Z,96277.40
2019-01-31T12:12:39.755Z,96275.91
2019-01-31T12:15:11.923Z,96269.46
2019-01-31T12:17:44.698Z,96261.36
2019-01-31T12:20:17.437Z,96257.59
2019-01-31T12:22:49.374Z,96249.84
2019-01-31T12:25:21.288Z,96250.09
2019-01-31T12:27:53.375Z,96248.30
2019-01-31T12:30:27.619Z,96254.42
2019-01-31T12:32:59.486Z,96250.30
2019-01-31T12:35:31.332Z,96248.88
2019-01-31T12:38:05.915Z,96253.36
2019-01-31T12:40:37.765Z,96248.41
2019-01-31T12:43:09.655Z,96242.66
2019-01-31T12:45:41.265Z,96238.06
2019-01-31T12:48:12.820Z,96228.41
2019-01-31T12:50:44.731Z,96220.77
2019-01-31T12:53:19.501Z,96218.19
2019-01-31T12:55:53.299Z,96218.34
2019-01-31T12:58:33.274Z,96221.05
2019-01-31T13:00:58.240Z,96217.70
2019-01-31T13:03:32.873Z,96213.49
2019-01-31T13:06:05.173Z,96217.94
2019-01-31T13:08:36.710Z,96214.86
2019-01-31T13:11:11.879Z,96215.23
2019-01-31T13:13:46.200Z,96216.52
2019-01-31T13:16:17.174Z,96208.57
2019-01-31T13:18:49.000Z,96206.11
2019-01-31T13:21:20.986Z,96209.12
2019-01-31T13:23:52.679Z,96208.45
2019-01-31T13:26:24.889Z,96204.21
2019-01-31T13:28:56.721Z,96204.09
2019-01-31T13:31:28.595Z,96207.73
2019-01-31T13:34:00.145Z,96207.27
2019-01-31T13:36:33.210Z,96202.34
2019-01-31T13:39:09.616Z,96198.70
2019-01-31T13:41:42.067Z,96198.78
2019-01-31T13:44:13.978Z,96196.75
2019-01-31T13:46:45.558Z,96192.31
2019-01-31T13:49:17.963Z,96193.11
2019-01-31T13:51:50.018Z,96192.30
2019-01-31T13:54:21.584Z,96189.72
2019-01-31T13:56:53.091Z,96191.01
2019-01-31T13:59:27.752Z,96185.23
2019-01-31T14:01:59.617Z,96172.97
2019-01-31T14:04:31.160Z,96178.50
2019-01-31T14:07:03.809Z,96177.48
2019-01-31T14:09:36.416Z,96170.58
2019-01-31T14:12:07.961Z,96174.02
2019-01-31T14:14:39.490Z,96169.30
2019-01-31T14:17:11.308Z,96168.61
2019-01-31T14:19:43.196Z,96172.25
2019-01-31T14:22:14.775Z,96174.05
2019-01-31T14:24:48.978Z,96177.11
2019-01-31T14:27:20.958Z,96179.89
2019-01-31T14:29:52.809Z,96178.46
2019-01-31T14:32:26.709Z,96181.59
2019-01-31T14:34:58.647Z,96179.44
2019-01-31T14:37:30.221Z,96173.02
2019-01-31T14:40:01.813Z,96177.27
2019-01-31T14:42:36.036Z,96168.34
2019-01-31T14:45:07.877Z,96173.72
2019-01-31T14:47:39.440Z,96177.40
2019-01-31T14:50:23.557Z,96176.23
2019-01-31T14:52:57.111Z,96169.03
2019-01-31T14:55:29.840Z,96166.75
2019-01-31T14:58:06.195Z,96171.35
2019-01-31T15:00:37.850Z,96159.83
2019-01-31T15:03:11.425Z,96165.56
2019-01-31T15:05:44.879Z,96165.20
2019-01-31T15:08:17.837Z,96163.48
2019-01-31T15:10:51.484Z,96158.68
2019-01-31T15:13:24.827Z,96153.77
2019-01-31T15:16:01.679Z,96156.61
2019-01-31T15:18:36.438Z,96159.37
2019-01-31T15:21:19.802Z,96157.36
2019-01-31T15:23:54.127Z,96158.09
2019-01-31T15:26:29.006Z,96159.87
2019-01-31T15:29:11.869Z,96155.30
2019-01-31T15:31:42.193Z,96155.19
2019-01-31T15:34:13.809Z,96153.21
2019-01-31T15:36:45.379Z,96145.67
2019-01-31T15:39:19.014Z,96152.63
2019-01-31T15:49:56.494Z,96154.84
2019-01-31T15:52:28.359Z,96155.78
2019-01-31T15:55:06.253Z,96147.94
2019-01-31T15:57:40.714Z,96150.64
2019-01-31T16:00:37.566Z,96147.03
2019-01-31T16:03:13.901Z,96141.05
2019-01-31T16:05:49.646Z,96141.08
2019-01-31T16:08:21.696Z,96137.77
2019-01-31T16:10:55.196Z,96128.62
2019-01-31T16:13:27.055Z,96128.23
2019-01-31T16:15:59.052Z,96121.52
2019-01-31T16:18:33.757Z,96121.16
2019-01-31T16:21:08.793Z,96113.41
2019-01-31T16:23:45.815Z,96118.98
2019-01-31T16:26:18.838Z,96120.87
2019-01-31T16:28:54.768Z,96121.62
2019-01-31T16:31:34.362Z,96128.13
2019-01-31T16:34:07.313Z,96121.80
2019-01-31T16:36:39.220Z,96123.16
2019-01-31T16:39:12.740Z,96120.39
2019-01-31T16:41:47.652Z,96123.03
2019-01-31T16:44:19.619Z,96116.59
2019-01-31T16:46:54.721Z,96118.79
2019-01-31T16:49:29.036Z,96120.29
2019-01-31T16:52:04.208Z,96122.05
2019-01-31T16:54:43.412Z,96126.28
2019-01-31T16:57:16.497Z,96114.59
2019-01-31T16:59:51.627Z,96110.52
2019-01-31T17:02:26.121Z,96104.67
2019-01-31T17:04:57.945Z,96102.91
2019-01-31T17:07:35.908Z,96098.45
2019-01-31T17:10:11.511Z,96101.14
2019-01-31T17:12:45.421Z,96093.73
2019-01-31T17:15:21.584Z,96091.97
2019-01-31T17:17:53.750Z,96088.59
2019-01-31T17:20:46.690Z,96076.63
2019-01-31T17:23:18.540Z,96073.47
2019-01-31T17:25:51.747Z,96075.46
2019-01-31T17:28:23.710Z,96070.36
2019-01-31T17:30:55.667Z,96066.49
2019-01-31T17:33:27.574Z,96067.08
2019-01-31T17:36:00.547Z,96078.56
2019-01-31T17:38:34.503Z,96083.86
2019-01-31T17:41:06.415Z,96081.98
2019-01-31T17:43:38.283Z,96085.84
2019-01-31T17:46:12.949Z,96085.84
2019-01-31T17:48:48.058Z,96089.34
2019-01-31T17:51:23.750Z,96082.97
2019-01-31T17:53:57.084Z,96078.47
2019-01-31T17:56:29.043Z,96076.20
2019-01-31T17:59:03.765Z,96060.36
2019-01-31T18:01:36.022Z,96058.37
2019-01-31T18:04:07.878Z,96058.11
2019-01-31T18:06:41.124Z,96061.52
2019-01-31T18:11:57.826Z,96058.91
2019-01-31T18:14:29.707Z,96061.48
2019-01-31T18:17:04.446Z,96067.37
2019-01-31T18:19:36.441Z,96055.56
2019-01-31T18:22:11.154Z,96059.66
2019-01-31T18:24:42.999Z,96072.12
2019-01-31T18:27:20.154Z,96063.38
2019-01-31T18:29:51.995Z,96054.63
2019-01-31T18:37:58.674Z,96058.35
2019-01-31T18:40:38.185Z,96054.38
2019-01-31T18:43:20.361Z,96051.75
2019-01-31T18:45:53.813Z,96044.30
2019-01-31T18:48:27.525Z,96036.53
2019-01-31T18:51:17.638Z,96019.06
2019-01-31T18:53:51.000Z,96025.09
2019-01-31T18:56:25.908Z,96008.45
2019-01-31T18:59:04.699Z,96006.03
2019-01-31T19:01:51.668Z,96009.20
2019-01-31T19:04:28.872Z,96008.68
2019-01-31T19:07:01.866Z,95990.34
2019-01-31T19:09:52.000Z,95973.77
2019-01-31T19:12:32.556Z,95963.31
2019-01-31T19:15:07.226Z,95964.81
2019-01-31T19:17:43.006Z,95960.69
2019-01-31T19:20:21.967Z,95961.81
2019-01-31T19:22:55.525Z,95961.81
2019-01-31T19:25:33.203Z,95959.84
2019-01-31T19:28:08.007Z,95957.27
2019-01-31T19:30:41.532Z,95951.53
2019-01-31T19:33:13.433Z,95956.98
2019-01-31T19:35:45.340Z,95959.78
2019-01-31T19:38:17.213Z,95943.58
2019-01-31T19:40:55.885Z,95940.45
2019-01-31T19:43:36.645Z,95939.17
2019-01-31T19:46:16.000Z,95920.94
2019-01-31T19:48:43.822Z,95923.66
2019-01-31T19:51:21.372Z,95920.28
2019-01-31T19:53:54.475Z,95919.35
2019-01-31T19:56:32.020Z,95903.91
2019-01-31T19:59:06.629Z,95910.73
2019-01-31T20:01:44.264Z,95913.78
2019-01-31T20:04:16.094Z,95912.52
2019-01-31T20:06:49.259Z,95901.52
2019-01-31T20:09:24.682Z,95898.61
2019-01-31T20:11:58.323Z,95897.67
2019-01-31T20:14:32.246Z,95900.38
2019-01-31T20:17:08.446Z,95899.79
2019-01-31T20:19:46.315Z,95905.30
2019-01-31T20:22:20.840Z,95901.09
2019-01-31T20:24:58.409Z,95906.48
2019-01-31T20:27:31.291Z,95902.75
2019-01-31T20:30:03.625Z,95906.14
2019-01-31T20:32:35.773Z,95904.25
2019-01-31T20:35:10.825Z,95905.87
2019-01-31T20:37:42.944Z,95901.31
2019-01-31T20:40:18.551Z,95904.02
2019-01-31T20:42:53.463Z,95899.33
2019-01-31T20:45:25.334Z,95898.97
2019-01-31T20:47:58.508Z,95896.28
2019-01-31T20:50:35.942Z,95894.44
2019-01-31T20:53:08.921Z,95895.47
2019-01-31T20:55:40.928Z,95893.26
2019-01-31T20:58:20.339Z,95893.03
2019-01-31T21:00:57.081Z,95893.73
2019-01-31T21:03:28.922Z,95899.22
2019-01-31T21:06:02.510Z,95890.57
2019-01-31T21:08:34.569Z,95891.51
2019-01-31T21:11:09.362Z,95898.41
2019-01-31T21:13:40.315Z,95900.18
2019-01-31T21:16:15.326Z,95898.06
2019-01-31T21:18:50.652Z,95896.55
2019-01-31T21:21:22.518Z,95884.82
2019-01-31T21:23:55.993Z,95881.08
2019-01-31T21:26:27.821Z,95878.86
2019-01-31T21:28:59.649Z,95867.75
2019-01-31T21:31:34.318Z,95866.44
2019-01-31T21:34:06.366Z,95868.69
2019-01-31T21:39:33.352Z,95840.93
2019-01-31T21:42:07.863Z,95836.71
2019-01-31T21:44:38.982Z,95836.34
2019-01-31T21:47:13.881Z,95836.34
2019-01-31T21:49:52.048Z,95824.41
2019-01-31T21:52:29.482Z,95825.13
2019-01-31T21:55:01.332Z,95813.89
2019-01-31T21:57:33.186Z,95810.15
2019-01-31T22:00:11.439Z,95810.36
2019-01-31T22:02:44.266Z,95801.14
2019-01-31T22:05:16.705Z,95797.73
2019-01-31T22:07:51.509Z,95797.49
2019-01-31T22:10:25.665Z,95799.38
2019-01-31T22:13:02.796Z,95793.14
2019-01-31T22:15:34.401Z,95780.03
2019-01-31T22:18:09.514Z,95781.44
2019-01-31T22:20:41.360Z,95783.66
2019-01-31T22:23:13.283Z,95785.75
2019-01-31T22:25:46.610Z,95783.78
2019-01-31T22:28:18.516Z,95776.86
2019-01-31T22:30:50.410Z,95776.14
2019-01-31T22:33:24.506Z,95769.70
2019-01-31T22:35:59.541Z,95761.61
2019-01-31T22:38:31.374Z,95759.03
2019-01-31T22:41:05.964Z,95753.99
2019-01-31T22:43:40.555Z,95741.44
2019-01-31T22:46:12.475Z,95741.67
2019-01-31T22:48:46.419Z,95750.69
2019-01-31T22:51:20.288Z,95748.35
2019-01-31T22:53:56.068Z,95751.05
2019-01-31T22:56:30.289Z,95743.32
2019-01-31T22:59:05.823Z,95727.05
2019-01-31T23:01:47.935Z,95728.10
2019-01-31T23:04:22.143Z,95727.38
2019-01-31T23:06:56.140Z,95731.25
2019-01-31T23:09:29.310Z,95733.02
2019-01-31T23:12:12.392Z,95740.50
2019-01-31T23:14:51.579Z,95743.08
2019-01-31T23:17:36.937Z,95726.08
2019-01-31T23:20:07.803Z,95725.68
2019-01-31T23:22:41.482Z,95712.91
2019-01-31T23:25:13.622Z,95713.88
2019-01-31T23:27:46.498Z,95712.47
2019-01-31T23:30:18.505Z,95702.28
2019-01-31T23:32:50.385Z,95692.45
2019-01-31T23:35:22.289Z,95695.41
2019-01-31T23:37:55.253Z,95698.59
2019-01-31T23:40:27.083Z,95702.22
2019-01-31T23:42:58.889Z,95692.59
2019-01-31T23:45:30.778Z,95684.17
2019-01-31T23:48:04.514Z,95683.56
2019-01-31T23:50:39.335Z,95678.89
2019-01-31T23:53:13.475Z,95673.73
2019-01-31T23:55:45.282Z,95666.33
2019-01-31T23:58:19.420Z,95659.39
